Eurodam — PHOS — position and weather

sailwx.info

Track history (hours):
 
Tides and Currents Weather Stations Pressure Air Temp Water Temp Dewpoint Dewpoint Depression Visibility Wind Speed Wind Dir Waves Ship Positions

Eurodam (Netherlands)

Last reported at 2017-May-28 06:31 UTC. Time now 2017-May-28 06:45 UTC.
Position N 48°39' W 125°10'.

Length 287 m; draft 8 m.

Type: Ship. MMSI: 245206000.

Date/timePositionNaut miles runAvg speedWind from/ knotsBaromVisibWave heightAir tempDewpointWater temp
2017-May-28 06:31N 48°39' W 125°10'1121.7
2017-May-28 06:00N 48°34' W 124°55'1122.0
2017-May-28 05:30N 48°29' W 124°39'1122.0
2017-May-28 05:01N 48°26' W 124°24'1421.6
2017-May-28 04:21N 48°20' W 124°05'1222.0
2017-May-28 03:48N 48°17' W 123°47'51123.0
2017-May-28 03:23N 47°59' W 122°35'614.7
2017-May-28 03:01N 47°55' W 122°30'1019.0
2017-May-28 02:30N 47°46' W 122°27'3569.5
2017-May-28 02:00N 48°12' W 123°01'1019.8
2017-May-28 01:29N 48°10' W 122°46'917.6
2017-May-28 00:58N 48°03' W 122°38'918.1
2017-May-28 00:30N 47°56' W 122°31'1020.2
2017-May-28 00:00N 47°46' W 122°27'917.2
2017-May-27 23:30N 47°37' W 122°25'4263.9
2017-May-27 22:51N 48°12' W 123°02'1813.2
2017-May-27 21:28N 48°13' W 123°29'56116.6
2017-May-27 20:59N 47°38' W 122°23'0 0.0
2017-May-27 20:29N 47°38' W 122°23'0 0.0
2017-May-27 19:59N 47°38' W 122°23'0 0.0
2017-May-27 19:29N 47°38' W 122°23'0 0.0
2017-May-27 18:56N 47°38' W 122°23'0 0.0
2017-May-27 18:29N 47°38' W 122°23'0 0.0
2017-May-27 17:59N 47°38' W 122°23'0 0.0
2017-May-27 17:29N 47°38' W 122°23'0 0.0
2017-May-27 16:59N 47°38' W 122°23'0 0.0
2017-May-27 16:29N 47°38' W 122°23'0 0.0
2017-May-27 15:59N 47°38' W 122°23'0 0.0
2017-May-27 15:29N 47°38' W 122°23'0 0.0
2017-May-27 14:59N 47°38' W 122°23'0 0.0
2017-May-27 13:58N 47°38' W 122°23'0 0.0
2017-May-27 13:28N 47°38' W 122°23'0 0.0
2017-May-27 12:58N 47°38' W 122°23'0 0.6
2017-May-27 12:30N 47°37' W 122°23'4 8.1
2017-May-27 12:01N 47°40' W 122°28'611.8
2017-May-27 11:30N 47°45' W 122°27'612.2
2017-May-27 11:01N 47°51' W 122°29'713.2
2017-May-27 10:31N 47°57' W 122°34'917.2
2017-May-27 10:00N 48°05' W 122°40'917.4
2017-May-27 09:31N 48°11' W 122°49'816.9
2017-May-27 09:01N 48°12' W 123°01'815.9
2017-May-27 08:30N 48°11' W 123°13'715.2
2017-May-27 08:01N 48°10' W 123°25'714.4
2017-May-27 07:31N 48°16' W 123°28'714.2
2017-May-27 07:00N 48°23' W 123°25'2 2.4
2017-May-27 06:11N 48°25' W 123°23'0 0.0
2017-May-27 05:47N 48°25' W 123°23'0 0.0
2017-May-27 05:26N 48°25' W 123°23'0 0.0
2017-May-27 04:52N 48°25' W 123°23'0 0.0
2017-May-27 04:06N 48°25' W 123°23'0 0.0
2017-May-27 03:54N 48°25' W 123°23'0 0.0
2017-May-27 03:23N 48°25' W 123°23'0 0.0
2017-May-27 03:00N 48°25' W 123°23'0 0.0
2017-May-27 01:59N 48°25' W 123°23'0 0.0
2017-May-27 01:19N 48°25' W 123°23'0 0.0
2017-May-27 00:58N 48°25' W 123°23'0 0.1
2017-May-27 00:30N 48°25' W 123°23'4 7.2
2017-May-27 00:01N 48°22' W 123°24'714.9
2017-May-26 23:31N 48°14' W 123°28'1019.4
2017-May-26 23:01N 48°13' W 123°42'1121.9
2017-May-26 22:29N 48°15' W 123°59'1021.5
2017-May-26 22:00N 48°19' W 124°13'1121.5
2017-May-26 21:31N 48°24' W 124°28'917.9
2017-May-26 21:00N 48°27' W 124°40'815.8
2017-May-26 20:31N 48°29' W 124°52'816.4
2017-May-26 20:01N 48°29' W 125°04'816.4
2017-May-26 19:31N 48°31' W 125°16'1020.2
2017-May-26 19:00N 48°38' W 125°28'1020.5
2017-May-26 18:30N 48°44' W 125°40'1019.9
2017-May-26 18:01N 48°51' W 125°51'1019.9
2017-May-26 17:31N 48°57' W 126°02'1020.0
2017-May-26 17:00N 49°04' W 126°14'1020.4
2017-May-26 16:30N 49°10' W 126°26'1020.4
2017-May-26 16:01N 49°17' W 126°38'1121.0
2017-May-26 15:31N 49°24' W 126°50'1121.0
2017-May-26 15:00N 49°30' W 127°03'1122.1
2017-May-26 14:30N 49°37' W 127°16'6622.7
2017-May-26 11:35N 50°27' W 128°24'223.2
2017-May-26 11:31N 50°29' W 128°26'1523.4
2017-May-26 10:52N 50°41' W 128°39'823.2
2017-May-26 10:30N 50°49' W 128°45'1223.2
2017-May-26 10:00N 50°59' W 128°53'1122.2
2017-May-26 09:30N 51°09' W 129°01'1122.2
2017-May-26 09:00N 51°19' W 129°08'1122.5
2017-May-26 08:30N 51°29' W 129°16'1122.9
2017-May-26 08:00N 51°40' W 129°24'1122.5
2017-May-26 07:30N 51°50' W 129°32'12322.3
2017-May-26 02:00N 53°42' W 130°54'2424.3 320 / 361018.510.8 14.010.0 8.6
2017-May-26 01:00N 54°06' W 131°00'208 9.0 290 / 361018.510.8 14.010.0 8.6
2017-May-25 02:00N 56°30' W 135°24'1919.2 290 / 171025.810.8 8.0 5.5 8.6
2017-May-25 01:00N 56°48' W 135°36'31 1.9 290 / 171025.8 5.4 9.0 5.9 8.6
2017-May-24 09:00N 57°12' W 136°12'66 9.4 310 / 211024.110.8 8.8 5.0 8.0
2017-May-24 02:00N 58°18' W 136°06'31 2.2 220 / 231015.310.8 11.0 6.7 6.7
2017-May-23 12:00N 58°06' W 135°12'99 4.3 320 / 161011.110.8 11.1 7.1
2017-May-22 13:00N 56°30' W 134°24'4221.0 150 / 81019.5 1.1 12.011.2 8.0
2017-May-22 11:00N 55°48' W 134°24'15118.9 150 / 121020.2 1.1 9.0 8.2 8.0
2017-May-22 03:00N 53°24' W 133°06'3718.5 150 / 231023.4 2.2 10.2 8.5
2017-May-22 01:00N 52°54' W 132°30'14420.3 150 / 221024.1 1.1 14.012.0 8.8
2017-May-21 17:53N 51°04' W 129°58'13621.5
2017-May-21 11:33N 49°36' W 127°16'221.1
2017-May-21 11:28N 49°35' W 127°13'1021.4
2017-May-21 11:00N 49°29' W 127°01'1121.5
2017-May-21 10:30N 49°22' W 126°48'1121.3
2017-May-21 10:00N 49°16' W 126°35'1121.3
2017-May-21 09:30N 49°10' W 126°22'1121.2
2017-May-21 09:00N 49°04' W 126°08'1020.7
2017-May-21 08:30N 48°58' W 125°56'1020.6
2017-May-21 08:00N 48°52' W 125°43'14867.8
2017-May-21 08:00N 49°00' W 126°00'2449.9 320 / 211024.8 1.1 10.710.211.3
2017-May-21 07:30N 48°46' W 125°30'1020.7
2017-May-21 07:00N 48°41' W 125°17'1020.6
2017-May-21 06:30N 48°35' W 125°03'1020.4
2017-May-21 06:00N 48°31' W 124°49'1020.8
2017-May-21 05:30N 48°28' W 124°34'1120.8
2017-May-21 05:00N 48°24' W 124°20'1020.3
2017-May-21 04:30N 48°20' W 124°06'1020.0
2017-May-21 04:00N 48°17' W 123°51'1020.2
2017-May-21 03:30N 48°16' W 123°36'918.8
2017-May-21 03:00N 48°12' W 123°23'5 9.4
2017-May-21 02:30N 48°10' W 123°17'1019.6
2017-May-21 02:00N 48°13' W 123°03'1121.6
2017-May-21 01:30N 48°12' W 122°47'1121.5
2017-May-21 01:00N 48°03' W 122°38'3414.0
2017-May-21 01:00N 48°00' W 122°36'816.5 010 / 181022.4 14.2 10.3
2017-May-21 00:31N 47°54' W 122°29'1121.1
2017-May-21 00:00N 47°43' W 122°27'612.5
2017-May-20 23:30N 47°37' W 122°23'0 0.7
2017-May-20 22:59N 47°38' W 122°23'0 0.0
2017-May-20 22:29N 47°38' W 122°23'0 0.0
2017-May-20 21:59N 47°38' W 122°23'0 0.0
2017-May-20 21:29N 47°38' W 122°23'0 0.0
2017-May-20 20:59N 47°38' W 122°23'0 0.0
2017-May-20 20:26N 47°38' W 122°23'0 0.0
2017-May-20 19:59N 47°38' W 122°23'0 0.0
2017-May-20 19:29N 47°38' W 122°23'0 0.0
2017-May-20 18:56N 47°38' W 122°23'0 0.0
2017-May-20 18:29N 47°38' W 122°23'0 0.0
2017-May-20 17:59N 47°38' W 122°23'0 0.0
2017-May-20 17:29N 47°38' W 122°23'0 0.0
2017-May-20 16:59N 47°38' W 122°23'0 0.0
2017-May-20 16:29N 47°38' W 122°23'0 0.0
2017-May-20 15:59N 47°38' W 122°23'0 0.0
2017-May-20 15:29N 47°38' W 122°23'0 0.0
2017-May-20 14:59N 47°38' W 122°23'0 0.0
2017-May-20 14:29N 47°38' W 122°23'0 0.0
2017-May-20 13:29N 47°38' W 122°23'0 0.0
2017-May-20 13:00N 47°38' W 122°23'1 2.3
2017-May-20 12:31N 47°37' W 122°25'510.4
2017-May-20 12:00N 47°42' W 122°28'713.7
2017-May-20 11:31N 47°49' W 122°28'713.7
2017-May-20 11:00N 47°56' W 122°31'814.6
2017-May-20 10:29N 48°02' W 122°38'714.5
2017-May-20 10:00N 48°08' W 122°43'814.7
2017-May-20 09:27N 48°11' W 122°54'716.4
2017-May-20 09:00N 48°12' W 123°05'816.3
2017-May-20 08:30N 48°11' W 123°17'612.4
2017-May-20 08:00N 48°11' W 123°26'814.9
2017-May-20 07:30N 48°18' W 123°28'713.0
2017-May-20 07:00N 48°24' W 123°25'1 2.3
2017-May-20 06:25N 48°25' W 123°23'0 0.0
2017-May-20 05:58N 48°25' W 123°23'0 0.0
2017-May-20 05:28N 48°25' W 123°23'0 0.0
2017-May-20 02:59N 48°25' W 123°23'0 0.0
2017-May-20 02:07N 48°25' W 123°23'0 0.0
2017-May-20 01:39N 48°25' W 123°23'0 0.0
2017-May-20 01:27N 48°25' W 123°23'0 0.0
2017-May-20 00:53N 48°25' W 123°23'2 4.3
2017-May-20 00:30N 48°24' W 123°25'714.2
2017-May-20 00:00N 48°17' W 123°26'1019.2
2017-May-19 23:28N 48°13' W 123°40'1021.3
2017-May-19 22:59N 48°14' W 123°56'1021.5
2017-May-19 22:30N 48°18' W 124°10'1121.5
2017-May-19 22:00N 48°23' W 124°25'918.7
2017-May-19 21:30N 48°26' W 124°38'714.8
2017-May-19 21:00N 48°29' W 124°48'815.3
2017-May-19 20:30N 48°29' W 124°60'815.7
2017-May-19 20:00N 48°30' W 125°11'1020.6
2017-May-19 19:30N 48°36' W 125°24'1122.4
2017-May-19 19:00N 48°43' W 125°37'1122.0
2017-May-19 18:30N 48°50' W 125°50'1122.0
2017-May-19 18:00N 48°57' W 126°03'1122.2
2017-May-19 17:30N 49°04' W 126°16'1122.7
2017-May-19 17:00N 49°11' W 126°29'1122.5
2017-May-19 16:30N 49°18' W 126°43'1122.5
2017-May-19 16:00N 49°25' W 126°56'1222.5
2017-May-19 15:30N 49°33' W 127°09'7321.9
2017-May-19 12:10N 50°28' W 128°24'423.0
2017-May-19 11:59N 50°31' W 128°28'1322.9
2017-May-19 11:26N 50°42' W 128°39'922.2
2017-May-19 11:00N 50°50' W 128°46'1122.4
2017-May-19 10:30N 51°00' W 128°54'1122.2
2017-May-19 10:00N 51°10' W 129°01'11731.7
2017-May-19 10:00N 51°00' W 128°54'2245.8 1020.810.8 10.9 8.810.0
2017-May-19 09:30N 51°20' W 129°09'1122.2
2017-May-19 09:00N 51°30' W 129°17'1122.3
2017-May-19 08:30N 51°40' W 129°24'1122.6
2017-May-19 08:00N 51°50' W 129°32'9022.5
2017-May-19 04:00N 53°12' W 130°36'148 9.2 230 / 121021.210.8 10.5 9.5
2017-May-18 12:00N 55°30' W 132°06'   140 / 141018.610.8 10.0 7.8 9.0
Track history (hours):
 
Tides and Currents Weather Stations Pressure Air Temp Water Temp Dewpoint Dewpoint Depression Visibility Wind Speed Wind Dir Waves Ship Positions

Eurodam (Netherlands)

Last reported at 2017-May-28 06:31 UTC. Time now 2017-May-28 06:45 UTC.
Position N 48°39' W 125°10'.

Length 287 m; draft 8 m.

Type: Ship. MMSI: 245206000.

Date/timePositionNaut miles runAvg speedWind from/ knotsBaromVisibWave heightAir tempDewpointWater temp
2017-May-28 06:31N 48°39' W 125°10'1121.7
2017-May-28 06:00N 48°34' W 124°55'1122.0
2017-May-28 05:30N 48°29' W 124°39'1122.0
2017-May-28 05:01N 48°26' W 124°24'1421.6
2017-May-28 04:21N 48°20' W 124°05'1222.0
2017-May-28 03:48N 48°17' W 123°47'51123.0
2017-May-28 03:23N 47°59' W 122°35'614.7
2017-May-28 03:01N 47°55' W 122°30'1019.0
2017-May-28 02:30N 47°46' W 122°27'3569.5
2017-May-28 02:00N 48°12' W 123°01'1019.8
2017-May-28 01:29N 48°10' W 122°46'917.6
2017-May-28 00:58N 48°03' W 122°38'918.1
2017-May-28 00:30N 47°56' W 122°31'1020.2
2017-May-28 00:00N 47°46' W 122°27'917.2
2017-May-27 23:30N 47°37' W 122°25'4263.9
2017-May-27 22:51N 48°12' W 123°02'1813.2
2017-May-27 21:28N 48°13' W 123°29'56116.6
2017-May-27 20:59N 47°38' W 122°23'0 0.0
2017-May-27 20:29N 47°38' W 122°23'0 0.0
2017-May-27 19:59N 47°38' W 122°23'0 0.0
2017-May-27 19:29N 47°38' W 122°23'0 0.0
2017-May-27 18:56N 47°38' W 122°23'0 0.0
2017-May-27 18:29N 47°38' W 122°23'0 0.0
2017-May-27 17:59N 47°38' W 122°23'0 0.0
2017-May-27 17:29N 47°38' W 122°23'0 0.0
2017-May-27 16:59N 47°38' W 122°23'0 0.0
2017-May-27 16:29N 47°38' W 122°23'0 0.0
2017-May-27 15:59N 47°38' W 122°23'0 0.0
2017-May-27 15:29N 47°38' W 122°23'0 0.0
2017-May-27 14:59N 47°38' W 122°23'0 0.0
2017-May-27 13:58N 47°38' W 122°23'0 0.0
2017-May-27 13:28N 47°38' W 122°23'0 0.0
2017-May-27 12:58N 47°38' W 122°23'0 0.6
2017-May-27 12:30N 47°37' W 122°23'4 8.1
2017-May-27 12:01N 47°40' W 122°28'611.8
2017-May-27 11:30N 47°45' W 122°27'612.2
2017-May-27 11:01N 47°51' W 122°29'713.2
2017-May-27 10:31N 47°57' W 122°34'917.2
2017-May-27 10:00N 48°05' W 122°40'917.4
2017-May-27 09:31N 48°11' W 122°49'816.9
2017-May-27 09:01N 48°12' W 123°01'815.9
2017-May-27 08:30N 48°11' W 123°13'715.2
2017-May-27 08:01N 48°10' W 123°25'714.4
2017-May-27 07:31N 48°16' W 123°28'714.2
2017-May-27 07:00N 48°23' W 123°25'2 2.4
2017-May-27 06:11N 48°25' W 123°23'0 0.0
2017-May-27 05:47N 48°25' W 123°23'0 0.0
2017-May-27 05:26N 48°25' W 123°23'0 0.0
2017-May-27 04:52N 48°25' W 123°23'0 0.0
2017-May-27 04:06N 48°25' W 123°23'0 0.0
2017-May-27 03:54N 48°25' W 123°23'0 0.0
2017-May-27 03:23N 48°25' W 123°23'0 0.0
2017-May-27 03:00N 48°25' W 123°23'0 0.0
2017-May-27 01:59N 48°25' W 123°23'0 0.0
2017-May-27 01:19N 48°25' W 123°23'0 0.0
2017-May-27 00:58N 48°25' W 123°23'0 0.1
2017-May-27 00:30N 48°25' W 123°23'4 7.2
2017-May-27 00:01N 48°22' W 123°24'714.9
2017-May-26 23:31N 48°14' W 123°28'1019.4
2017-May-26 23:01N 48°13' W 123°42'1121.9
2017-May-26 22:29N 48°15' W 123°59'1021.5
2017-May-26 22:00N 48°19' W 124°13'1121.5
2017-May-26 21:31N 48°24' W 124°28'917.9
2017-May-26 21:00N 48°27' W 124°40'815.8
2017-May-26 20:31N 48°29' W 124°52'816.4
2017-May-26 20:01N 48°29' W 125°04'816.4
2017-May-26 19:31N 48°31' W 125°16'1020.2
2017-May-26 19:00N 48°38' W 125°28'1020.5
2017-May-26 18:30N 48°44' W 125°40'1019.9
2017-May-26 18:01N 48°51' W 125°51'1019.9
2017-May-26 17:31N 48°57' W 126°02'1020.0
2017-May-26 17:00N 49°04' W 126°14'1020.4
2017-May-26 16:30N 49°10' W 126°26'1020.4
2017-May-26 16:01N 49°17' W 126°38'1121.0
2017-May-26 15:31N 49°24' W 126°50'1121.0
2017-May-26 15:00N 49°30' W 127°03'1122.1
2017-May-26 14:30N 49°37' W 127°16'6622.7
2017-May-26 11:35N 50°27' W 128°24'223.2
2017-May-26 11:31N 50°29' W 128°26'1523.4
2017-May-26 10:52N 50°41' W 128°39'823.2
2017-May-26 10:30N 50°49' W 128°45'1223.2
2017-May-26 10:00N 50°59' W 128°53'1122.2
2017-May-26 09:30N 51°09' W 129°01'1122.2
2017-May-26 09:00N 51°19' W 129°08'1122.5
2017-May-26 08:30N 51°29' W 129°16'1122.9
2017-May-26 08:00N 51°40' W 129°24'1122.5
2017-May-26 07:30N 51°50' W 129°32'12322.3
2017-May-26 02:00N 53°42' W 130°54'2424.3 320 / 361018.510.8 14.010.0 8.6
2017-May-26 01:00N 54°06' W 131°00'208 9.0 290 / 361018.510.8 14.010.0 8.6
2017-May-25 02:00N 56°30' W 135°24'1919.2 290 / 171025.810.8 8.0 5.5 8.6
2017-May-25 01:00N 56°48' W 135°36'31 1.9 290 / 171025.8 5.4 9.0 5.9 8.6
2017-May-24 09:00N 57°12' W 136°12'66 9.4 310 / 211024.110.8 8.8 5.0 8.0
2017-May-24 02:00N 58°18' W 136°06'31 2.2 220 / 231015.310.8 11.0 6.7 6.7
2017-May-23 12:00N 58°06' W 135°12'99 4.3 320 / 161011.110.8 11.1 7.1
2017-May-22 13:00N 56°30' W 134°24'4221.0 150 / 81019.5 1.1 12.011.2 8.0
2017-May-22 11:00N 55°48' W 134°24'15118.9 150 / 121020.2 1.1 9.0 8.2 8.0
2017-May-22 03:00N 53°24' W 133°06'3718.5 150 / 231023.4 2.2 10.2 8.5
2017-May-22 01:00N 52°54' W 132°30'14420.3 150 / 221024.1 1.1 14.012.0 8.8
2017-May-21 17:53N 51°04' W 129°58'13621.5
2017-May-21 11:33N 49°36' W 127°16'221.1
2017-May-21 11:28N 49°35' W 127°13'1021.4
2017-May-21 11:00N 49°29' W 127°01'1121.5
2017-May-21 10:30N 49°22' W 126°48'1121.3
2017-May-21 10:00N 49°16' W 126°35'1121.3
2017-May-21 09:30N 49°10' W 126°22'1121.2
2017-May-21 09:00N 49°04' W 126°08'1020.7
2017-May-21 08:30N 48°58' W 125°56'1020.6
2017-May-21 08:00N 48°52' W 125°43'14867.8
2017-May-21 08:00N 49°00' W 126°00'2449.9 320 / 211024.8 1.1 10.710.211.3
2017-May-21 07:30N 48°46' W 125°30'1020.7
2017-May-21 07:00N 48°41' W 125°17'1020.6
2017-May-21 06:30N 48°35' W 125°03'1020.4
2017-May-21 06:00N 48°31' W 124°49'1020.8
2017-May-21 05:30N 48°28' W 124°34'1120.8
2017-May-21 05:00N 48°24' W 124°20'1020.3
2017-May-21 04:30N 48°20' W 124°06'1020.0
2017-May-21 04:00N 48°17' W 123°51'1020.2
2017-May-21 03:30N 48°16' W 123°36'918.8
2017-May-21 03:00N 48°12' W 123°23'5 9.4
2017-May-21 02:30N 48°10' W 123°17'1019.6
2017-May-21 02:00N 48°13' W 123°03'1121.6
2017-May-21 01:30N 48°12' W 122°47'1121.5
2017-May-21 01:00N 48°03' W 122°38'3414.0
2017-May-21 01:00N 48°00' W 122°36'816.5 010 / 181022.4 14.2 10.3
2017-May-21 00:31N 47°54' W 122°29'1121.1
2017-May-21 00:00N 47°43' W 122°27'612.5
2017-May-20 23:30N 47°37' W 122°23'0 0.7
2017-May-20 22:59N 47°38' W 122°23'0 0.0
2017-May-20 22:29N 47°38' W 122°23'0 0.0
2017-May-20 21:59N 47°38' W 122°23'0 0.0
2017-May-20 21:29N 47°38' W 122°23'0 0.0
2017-May-20 20:59N 47°38' W 122°23'0 0.0
2017-May-20 20:26N 47°38' W 122°23'0 0.0
2017-May-20 19:59N 47°38' W 122°23'0 0.0
2017-May-20 19:29N 47°38' W 122°23'0 0.0
2017-May-20 18:56N 47°38' W 122°23'0 0.0
2017-May-20 18:29N 47°38' W 122°23'0 0.0
2017-May-20 17:59N 47°38' W 122°23'0 0.0
2017-May-20 17:29N 47°38' W 122°23'0 0.0
2017-May-20 16:59N 47°38' W 122°23'0 0.0
2017-May-20 16:29N 47°38' W 122°23'0 0.0
2017-May-20 15:59N 47°38' W 122°23'0 0.0
2017-May-20 15:29N 47°38' W 122°23'0 0.0
2017-May-20 14:59N 47°38' W 122°23'0 0.0
2017-May-20 14:29N 47°38' W 122°23'0 0.0
2017-May-20 13:29N 47°38' W 122°23'0 0.0
2017-May-20 13:00N 47°38' W 122°23'1 2.3
2017-May-20 12:31N 47°37' W 122°25'510.4
2017-May-20 12:00N 47°42' W 122°28'713.7
2017-May-20 11:31N 47°49' W 122°28'713.7
2017-May-20 11:00N 47°56' W 122°31'814.6
2017-May-20 10:29N 48°02' W 122°38'714.5
2017-May-20 10:00N 48°08' W 122°43'814.7
2017-May-20 09:27N 48°11' W 122°54'716.4
2017-May-20 09:00N 48°12' W 123°05'816.3
2017-May-20 08:30N 48°11' W 123°17'612.4
2017-May-20 08:00N 48°11' W 123°26'814.9
2017-May-20 07:30N 48°18' W 123°28'713.0
2017-May-20 07:00N 48°24' W 123°25'1 2.3
2017-May-20 06:25N 48°25' W 123°23'0 0.0
2017-May-20 05:58N 48°25' W 123°23'0 0.0
2017-May-20 05:28N 48°25' W 123°23'0 0.0
2017-May-20 02:59N 48°25' W 123°23'0 0.0
2017-May-20 02:07N 48°25' W 123°23'0 0.0
2017-May-20 01:39N 48°25' W 123°23'0 0.0
2017-May-20 01:27N 48°25' W 123°23'0 0.0
2017-May-20 00:53N 48°25' W 123°23'2 4.3
2017-May-20 00:30N 48°24' W 123°25'714.2
2017-May-20 00:00N 48°17' W 123°26'1019.2
2017-May-19 23:28N 48°13' W 123°40'1021.3
2017-May-19 22:59N 48°14' W 123°56'1021.5
2017-May-19 22:30N 48°18' W 124°10'1121.5
2017-May-19 22:00N 48°23' W 124°25'918.7
2017-May-19 21:30N 48°26' W 124°38'714.8
2017-May-19 21:00N 48°29' W 124°48'815.3
2017-May-19 20:30N 48°29' W 124°60'815.7
2017-May-19 20:00N 48°30' W 125°11'1020.6
2017-May-19 19:30N 48°36' W 125°24'1122.4
2017-May-19 19:00N 48°43' W 125°37'1122.0
2017-May-19 18:30N 48°50' W 125°50'1122.0
2017-May-19 18:00N 48°57' W 126°03'1122.2
2017-May-19 17:30N 49°04' W 126°16'1122.7
2017-May-19 17:00N 49°11' W 126°29'1122.5
2017-May-19 16:30N 49°18' W 126°43'1122.5
2017-May-19 16:00N 49°25' W 126°56'1222.5
2017-May-19 15:30N 49°33' W 127°09'7321.9
2017-May-19 12:10N 50°28' W 128°24'423.0
2017-May-19 11:59N 50°31' W 128°28'1322.9
2017-May-19 11:26N 50°42' W 128°39'922.2
2017-May-19 11:00N 50°50' W 128°46'1122.4
2017-May-19 10:30N 51°00' W 128°54'1122.2
2017-May-19 10:00N 51°10' W 129°01'11731.7
2017-May-19 10:00N 51°00' W 128°54'2245.8 1020.810.8 10.9 8.810.0
2017-May-19 09:30N 51°20' W 129°09'1122.2
2017-May-19 09:00N 51°30' W 129°17'1122.3
2017-May-19 08:30N 51°40' W 129°24'1122.6
2017-May-19 08:00N 51°50' W 129°32'9022.5
2017-May-19 04:00N 53°12' W 130°36'148 9.2 230 / 121021.210.8 10.5 9.5
2017-May-18 12:00N 55°30' W 132°06'   140 / 141018.610.8 10.0 7.8 9.0

Dump ship's entire track history